This is the latest recevied weather packets stored in our database for station/object WX7EM. If no packets are shown the sender has not sent any weather packets the latest 10 day(s).
| Time | Temp. | Humidity | Pressure | Rain* | Wind** | Luminosity | Snow |
|---|---|---|---|---|---|---|---|
| 1777650544 | 12.78° C | 83% | 1017 hPa | 0 mm | - | 282 W/m² | - |
| 1777650242 | 12.22° C | 84% | 1017 hPa | 0 mm | - | 205 W/m² | - |
| 1777649939 | 12.22° C | 85% | 1017 hPa | 0 mm | - | 192 W/m² | - |
| 1777649636 | 11.67° C | 86% | 1017 hPa | 0 mm | - | 142 W/m² | - |
| 1777649332 | 11.67° C | 86% | 1016.9 hPa | 0 mm | - | 129 W/m² | - |
| 1777649030 | 11.67° C | 86% | 1016.8 hPa | 0 mm | - | 121 W/m² | - |
| 1777648727 | 11.67° C | 86% | 1017.2 hPa | 0 mm | - | 116 W/m² | - |
| 1777648423 | 11.67° C | 86% | 1016.9 hPa | 0 mm | - | 119 W/m² | - |
| 1777648119 | 11.67° C | 86% | 1017 hPa | 0 mm | - | 121 W/m² | - |
| 1777647816 | 11.67° C | 86% | 1016.9 hPa | 0 mm | - | 133 W/m² | - |
| 1777647512 | 11.67° C | 86% | 1016.7 hPa | 0 mm | - | 149 W/m² | - |
| 1777647209 | 11.67° C | 87% | 1016.8 hPa | 0 mm | - | 161 W/m² | - |
| 1777646906 | 11.67° C | 88% | 1016.8 hPa | 0 mm | - | 155 W/m² | - |
| 1777646601 | 11.67° C | 88% | 1016.9 hPa | 0 mm | - | 142 W/m² | - |
| 1777646298 | 11.11° C | 89% | 1016.7 hPa | 0 mm | - | 135 W/m² | - |
| 1777645995 | 11.11° C | 90% | 1016.9 hPa | 0 mm | - | 121 W/m² | - |
| 1777645692 | 11.11° C | 90% | 1016.9 hPa | 0 mm | - | 112 W/m² | - |
| 1777645388 | 10.56° C | 91% | 1016.8 hPa | 0 mm | - | 97 W/m² | - |
| 1777645084 | 10.56° C | 91% | 1016.7 hPa | 0 mm | - | 90 W/m² | - |
| 1777644780 | 10° C | 91% | 1016.7 hPa | 0 mm | - | 83 W/m² | - |
| 1777644478 | 10° C | 91% | 1016.4 hPa | 0 mm | - | 76 W/m² | - |
| 1777644175 | 10° C | 90% | 1016.4 hPa | 0 mm | - | 67 W/m² | - |
| 1777643871 | 10.56° C | 90% | 1016.4 hPa | 0 mm | - | 59 W/m² | - |
| 1777643569 | 10.56° C | 90% | 1016.3 hPa | 0 mm | - | 53 W/m² | - |
| 1777643265 | 10.56° C | 91% | 1016.1 hPa | 0 mm | - | 48 W/m² | - |
* Rain latest hour (hover to see other rain measurements)
** Current wind speed in m/s (hover to see current wind gust speed)